createdAt,value
2022-09-26T00:00:23.467Z,1002.65
2022-09-26T00:00:58.579Z,1002.64
2022-09-26T00:01:33.765Z,1002.64
2022-09-26T00:02:09.200Z,1002.64
2022-09-26T00:02:44.271Z,1002.62
2022-09-26T00:03:19.673Z,1002.62
2022-09-26T00:03:55.187Z,1002.56
2022-09-26T00:04:32.845Z,1002.58
2022-09-26T00:05:05.811Z,1002.57
2022-09-26T00:05:40.918Z,1002.59
2022-09-26T00:06:16.018Z,1002.51
2022-09-26T00:06:51.629Z,1002.56
2022-09-26T00:07:26.716Z,1002.51
2022-09-26T00:08:02.040Z,1002.51
2022-09-26T00:08:37.378Z,1002.50
2022-09-26T00:09:12.339Z,1002.50
2022-09-26T00:09:47.785Z,1002.49
2022-09-26T00:10:22.985Z,1002.50
2022-09-26T00:10:58.187Z,1002.45
2022-09-26T00:11:33.379Z,1002.43
2022-09-26T00:12:08.677Z,1002.41
2022-09-26T00:12:43.944Z,1002.42
2022-09-26T00:13:18.977Z,1002.38
2022-09-26T00:13:54.202Z,1002.41
2022-09-26T00:14:29.718Z,1002.36
2022-09-26T00:15:04.837Z,1002.35
2022-09-26T00:15:40.129Z,1002.34
2022-09-26T00:16:15.339Z,1002.34
2022-09-26T00:16:50.554Z,1002.28
2022-09-26T00:17:25.641Z,1002.32
2022-09-26T00:18:01.042Z,1002.28
2022-09-26T00:18:36.324Z,1002.29
2022-09-26T00:19:11.637Z,1002.25
2022-09-26T00:19:46.919Z,1002.19
2022-09-26T00:20:21.858Z,1002.18
2022-09-26T00:20:56.972Z,1002.18
2022-09-26T00:21:32.260Z,1002.17
2022-09-26T00:22:07.521Z,1002.16
2022-09-26T00:22:42.915Z,1002.20
2022-09-26T00:23:18.221Z,1002.16
2022-09-26T00:23:53.523Z,1002.16
2022-09-26T00:24:28.682Z,1002.09
2022-09-26T00:25:03.988Z,1002.14
2022-09-26T00:25:39.205Z,1002.14
2022-09-26T00:26:14.205Z,1002.07
2022-09-26T00:26:49.487Z,1002.08
2022-09-26T00:27:24.690Z,1002.06
2022-09-26T00:28:00.094Z,1002.07
2022-09-26T00:28:35.111Z,1002.00
2022-09-26T00:29:10.815Z,1002.02
2022-09-26T00:29:46.308Z,1002.02
2022-09-26T00:30:21.804Z,1001.99
2022-09-26T00:30:57.068Z,1002.04
2022-09-26T00:31:32.212Z,1002.01
2022-09-26T00:32:07.603Z,1002.01
2022-09-26T00:32:42.598Z,1002.01
2022-09-26T00:33:18.131Z,1001.94
2022-09-26T00:33:53.220Z,1001.93
2022-09-26T00:34:28.540Z,1001.90
2022-09-26T00:35:03.842Z,1001.90
2022-09-26T00:35:39.047Z,1001.90
2022-09-26T00:36:13.987Z,1001.92
2022-09-26T00:36:48.998Z,1001.90
2022-09-26T00:37:24.218Z,1001.92
2022-09-26T00:37:59.513Z,1001.88
2022-09-26T00:38:35.254Z,1001.86
2022-09-26T00:39:10.454Z,1001.88
2022-09-26T00:39:45.640Z,1001.87
2022-09-26T00:40:20.745Z,1001.87
2022-09-26T00:40:55.861Z,1001.82
2022-09-26T00:41:31.151Z,1001.81
2022-09-26T00:42:06.225Z,1001.84
2022-09-26T00:42:41.419Z,1001.81
2022-09-26T00:43:16.818Z,1001.83
2022-09-26T00:43:52.124Z,1001.78
2022-09-26T00:44:27.426Z,1001.86
2022-09-26T00:45:02.709Z,1001.79
2022-09-26T00:45:38.146Z,1001.76
2022-09-26T00:46:13.254Z,1001.72
2022-09-26T00:46:48.531Z,1001.76
2022-09-26T00:47:23.816Z,1001.79
2022-09-26T00:47:59.278Z,1001.75
2022-09-26T00:48:34.279Z,1001.77
2022-09-26T00:49:09.534Z,1001.75
2022-09-26T00:49:44.592Z,1001.77
2022-09-26T00:50:19.714Z,1001.78
2022-09-26T00:50:54.938Z,1001.74
2022-09-26T00:51:30.263Z,1001.73
2022-09-26T00:52:05.668Z,1001.73
2022-09-26T00:52:41.172Z,1001.69
2022-09-26T00:53:16.465Z,1001.68
2022-09-26T00:53:51.966Z,1001.71
2022-09-26T00:54:27.378Z,1001.66
2022-09-26T00:55:02.776Z,1001.62
2022-09-26T00:55:37.874Z,1001.61
2022-09-26T00:56:13.111Z,1001.62
2022-09-26T00:56:48.329Z,1001.61
2022-09-26T00:57:23.490Z,1001.56
2022-09-26T00:57:58.880Z,1001.59
2022-09-26T00:58:34.100Z,1001.56
2022-09-26T00:59:09.344Z,1001.56
2022-09-26T00:59:44.501Z,1001.57
2022-09-26T01:00:19.679Z,1001.57
2022-09-26T01:00:55.349Z,1001.58
2022-09-26T01:01:30.428Z,1001.56
2022-09-26T01:02:05.667Z,1001.56
2022-09-26T01:02:41.035Z,1001.55
2022-09-26T01:03:16.283Z,1001.57
2022-09-26T01:03:51.739Z,1001.55
2022-09-26T01:04:27.181Z,1001.53
2022-09-26T01:05:02.361Z,1001.53
2022-09-26T01:05:37.570Z,1001.50
2022-09-26T01:06:12.660Z,1001.52
2022-09-26T01:06:47.964Z,1001.50
2022-09-26T01:07:22.966Z,1001.52
2022-09-26T01:07:58.486Z,1001.45
2022-09-26T01:08:33.490Z,1001.47
2022-09-26T01:09:08.619Z,1001.44
2022-09-26T01:09:43.779Z,1001.44
2022-09-26T01:10:19.166Z,1001.43
2022-09-26T01:10:54.166Z,1001.41
2022-09-26T01:11:29.705Z,1001.42
2022-09-26T01:12:04.698Z,1001.41
2022-09-26T01:12:39.800Z,1001.42
2022-09-26T01:13:14.911Z,1001.39
2022-09-26T01:13:50.207Z,1001.37
2022-09-26T01:14:25.619Z,1001.39
2022-09-26T01:15:00.949Z,1001.36
2022-09-26T01:15:36.870Z,1001.37
2022-09-26T01:16:12.090Z,1001.35
2022-09-26T01:16:47.202Z,1001.35
2022-09-26T01:17:22.180Z,1001.31
2022-09-26T01:17:57.479Z,1001.30
2022-09-26T01:18:32.904Z,1001.29
2022-09-26T01:19:08.518Z,1001.30
2022-09-26T01:19:43.790Z,1001.27
2022-09-26T01:20:21.732Z,1001.24
2022-09-26T01:20:57.051Z,1001.24
2022-09-26T01:21:32.361Z,1001.21
2022-09-26T01:22:07.558Z,1001.20
2022-09-26T01:22:42.870Z,1001.18
2022-09-26T01:23:17.859Z,1001.21
2022-09-26T01:23:53.495Z,1001.23
2022-09-26T01:24:28.805Z,1001.20
2022-09-26T01:25:04.199Z,1001.17
2022-09-26T01:25:39.403Z,1001.19
2022-09-26T01:26:14.824Z,1001.18
2022-09-26T01:26:50.144Z,1001.22
2022-09-26T01:27:25.361Z,1001.19
2022-09-26T01:28:00.558Z,1001.13
2022-09-26T01:28:36.072Z,1001.12
2022-09-26T01:29:11.429Z,1001.14
2022-09-26T01:29:46.899Z,1001.12
2022-09-26T01:30:22.305Z,1001.12
2022-09-26T01:30:57.579Z,1001.06
2022-09-26T01:31:32.663Z,1001.10
2022-09-26T01:32:07.882Z,1001.04
2022-09-26T01:32:43.296Z,1001.04
2022-09-26T01:33:18.708Z,1001.04
2022-09-26T01:33:54.301Z,1001.03
2022-09-26T01:34:29.605Z,1001.01
2022-09-26T01:35:04.911Z,1001.05
2022-09-26T01:35:40.025Z,1001.02
2022-09-26T01:36:15.620Z,1001.02
2022-09-26T01:36:50.831Z,1001.05
2022-09-26T01:37:25.855Z,1001.04
2022-09-26T01:38:00.968Z,1001.03
2022-09-26T01:38:36.467Z,1000.99
2022-09-26T01:39:11.683Z,1001.05
2022-09-26T01:39:46.807Z,1001.01
2022-09-26T01:40:22.015Z,1001.06
2022-09-26T01:40:57.179Z,1001.04
2022-09-26T01:41:32.444Z,1001.03
2022-09-26T01:42:07.534Z,1001.01
2022-09-26T01:42:43.040Z,1000.99
2022-09-26T01:43:18.333Z,1000.99
2022-09-26T01:43:53.841Z,1001.00
2022-09-26T01:44:29.361Z,1000.99
2022-09-26T01:45:04.492Z,1001.02
2022-09-26T01:45:39.944Z,1001.01
2022-09-26T01:46:15.101Z,1000.98
2022-09-26T01:46:50.515Z,1001.01
2022-09-26T01:47:25.879Z,1001.02
2022-09-26T01:48:01.461Z,1000.97
2022-09-26T01:48:36.585Z,1000.99
2022-09-26T01:49:11.715Z,1001.03
2022-09-26T01:49:46.989Z,1001.00
2022-09-26T01:50:22.204Z,1000.97
2022-09-26T01:50:57.563Z,1001.01
2022-09-26T01:51:32.980Z,1000.96
2022-09-26T01:52:08.170Z,1000.96
2022-09-26T01:52:43.179Z,1000.95
2022-09-26T01:53:18.273Z,1000.94
2022-09-26T01:53:53.787Z,1000.93
2022-09-26T01:54:29.301Z,1000.91
2022-09-26T01:55:04.607Z,1000.92
2022-09-26T01:55:39.627Z,1000.88
2022-09-26T01:56:14.643Z,1000.90
2022-09-26T01:56:49.725Z,1000.88
2022-09-26T01:57:24.911Z,1000.87
2022-09-26T01:58:00.325Z,1000.86
2022-09-26T01:58:35.743Z,1000.87
2022-09-26T01:59:10.844Z,1000.85
2022-09-26T01:59:45.758Z,1000.86
2022-09-26T02:00:21.065Z,1000.81
2022-09-26T02:00:56.472Z,1000.80
2022-09-26T02:01:31.898Z,1000.81
2022-09-26T02:02:07.247Z,1000.77
2022-09-26T02:02:42.245Z,1000.77
2022-09-26T02:03:17.341Z,1000.73
2022-09-26T02:03:52.549Z,1000.73
2022-09-26T02:04:27.745Z,1000.70
2022-09-26T02:05:03.105Z,1000.69
2022-09-26T02:05:38.194Z,1000.69
2022-09-26T02:06:13.313Z,1000.70
2022-09-26T02:06:48.602Z,1000.66
2022-09-26T02:07:23.803Z,1000.65
2022-09-26T02:07:59.011Z,1000.64
2022-09-26T02:08:34.108Z,1000.60
2022-09-26T02:09:09.553Z,1000.59
2022-09-26T02:09:44.741Z,1000.58
2022-09-26T02:10:19.945Z,1000.59
2022-09-26T02:10:55.153Z,1000.58
2022-09-26T02:11:30.254Z,1000.57
2022-09-26T02:12:05.375Z,1000.61
2022-09-26T02:12:40.574Z,1000.58
2022-09-26T02:13:15.887Z,1000.56
2022-09-26T02:13:51.091Z,1000.51
2022-09-26T02:14:26.289Z,1000.53
2022-09-26T02:15:01.388Z,1000.52
2022-09-26T02:15:36.616Z,1000.52
2022-09-26T02:16:12.290Z,1000.51
2022-09-26T02:16:47.792Z,1000.48
2022-09-26T02:17:23.074Z,1000.47
2022-09-26T02:17:58.066Z,1000.43
2022-09-26T02:18:33.360Z,1000.42
2022-09-26T02:19:08.943Z,1000.39
2022-09-26T02:19:44.179Z,1000.41
2022-09-26T02:20:19.458Z,1000.42
2022-09-26T02:20:54.582Z,1000.36
2022-09-26T02:21:29.848Z,1000.37
2022-09-26T02:22:05.275Z,1000.39
2022-09-26T02:22:40.551Z,1000.37
2022-09-26T02:23:15.769Z,1000.32
2022-09-26T02:23:51.179Z,1000.34
2022-09-26T02:24:26.689Z,1000.32
2022-09-26T02:25:02.000Z,1000.31
2022-09-26T02:25:37.100Z,1000.32
2022-09-26T02:26:12.404Z,1000.30
2022-09-26T02:26:47.631Z,1000.29
2022-09-26T02:27:22.725Z,1000.28
2022-09-26T02:27:58.048Z,1000.31
2022-09-26T02:28:33.045Z,1000.30
2022-09-26T02:29:08.467Z,1000.28
2022-09-26T02:29:43.689Z,1000.24
2022-09-26T02:30:18.790Z,1000.27
2022-09-26T02:30:53.993Z,1000.25
2022-09-26T02:31:29.148Z,1000.18
2022-09-26T02:32:04.379Z,1000.21
2022-09-26T02:32:39.604Z,1000.21
2022-09-26T02:33:15.009Z,1000.17
2022-09-26T02:33:50.301Z,1000.17
2022-09-26T02:34:25.498Z,1000.17
2022-09-26T02:35:00.807Z,1000.14
2022-09-26T02:35:36.324Z,1000.18
2022-09-26T02:36:11.705Z,1000.13
2022-09-26T02:36:46.719Z,1000.12
2022-09-26T02:37:22.106Z,1000.13
2022-09-26T02:37:57.235Z,1000.13
2022-09-26T02:38:32.424Z,1000.08
2022-09-26T02:39:07.916Z,1000.09
2022-09-26T02:39:43.292Z,1000.12
2022-09-26T02:40:18.672Z,1000.07
2022-09-26T02:40:54.058Z,1000.06
2022-09-26T02:41:29.533Z,1000.01
2022-09-26T02:42:04.571Z,1000.02
2022-09-26T02:42:39.659Z,999.98
2022-09-26T02:43:14.996Z,1000.05
2022-09-26T02:43:50.597Z,999.97
2022-09-26T02:44:25.572Z,999.96
2022-09-26T02:45:00.669Z,999.93
2022-09-26T02:45:36.126Z,999.97
2022-09-26T02:46:11.224Z,999.93
2022-09-26T02:46:46.074Z,999.87
2022-09-26T02:47:21.178Z,999.90
2022-09-26T02:47:56.581Z,999.89
2022-09-26T02:48:31.588Z,999.84
2022-09-26T02:49:06.994Z,999.88
2022-09-26T02:49:42.096Z,999.84
2022-09-26T02:50:17.404Z,999.84
2022-09-26T02:50:52.508Z,999.82
2022-09-26T02:51:27.710Z,999.87
2022-09-26T02:52:03.213Z,999.78
2022-09-26T02:52:38.308Z,999.79
2022-09-26T02:53:13.717Z,999.76
2022-09-26T02:53:48.771Z,999.79
2022-09-26T02:54:24.176Z,999.79
2022-09-26T02:54:59.486Z,999.80
2022-09-26T02:55:34.699Z,999.80
2022-09-26T02:56:10.072Z,999.69
2022-09-26T02:56:45.194Z,999.74
2022-09-26T02:57:20.285Z,999.75
2022-09-26T02:57:55.387Z,999.74
2022-09-26T02:58:30.502Z,999.70
2022-09-26T02:59:05.875Z,999.67
2022-09-26T02:59:40.943Z,999.69
2022-09-26T03:00:16.069Z,999.67
2022-09-26T03:00:51.128Z,999.64
2022-09-26T03:01:26.386Z,999.67
2022-09-26T03:02:01.762Z,999.65
2022-09-26T03:02:36.969Z,999.62
2022-09-26T03:03:12.375Z,999.61
2022-09-26T03:03:47.654Z,999.62
2022-09-26T03:04:22.954Z,999.63
2022-09-26T03:04:58.539Z,999.58
2022-09-26T03:05:33.438Z,999.58
2022-09-26T03:06:08.470Z,999.55
2022-09-26T03:06:44.022Z,999.60
2022-09-26T03:07:19.243Z,999.55
2022-09-26T03:07:54.852Z,999.53
2022-09-26T03:08:30.055Z,999.55
2022-09-26T03:09:05.832Z,999.52
2022-09-26T03:09:41.209Z,999.50
2022-09-26T03:10:16.557Z,999.47
2022-09-26T03:10:51.470Z,999.54
2022-09-26T03:11:26.779Z,999.45
2022-09-26T03:12:01.908Z,999.47
2022-09-26T03:12:37.540Z,999.45
2022-09-26T03:13:12.858Z,999.45
2022-09-26T03:13:48.197Z,999.47
2022-09-26T03:14:23.496Z,999.43
2022-09-26T03:14:58.909Z,999.43
2022-09-26T03:15:35.049Z,999.42
2022-09-26T03:16:10.636Z,999.39
2022-09-26T03:16:45.756Z,999.36
2022-09-26T03:17:21.129Z,999.37
2022-09-26T03:17:56.233Z,999.37
2022-09-26T03:18:31.509Z,999.39
2022-09-26T03:19:06.781Z,999.38
2022-09-26T03:19:42.040Z,999.37
2022-09-26T03:20:17.612Z,999.34
2022-09-26T03:20:52.888Z,999.33
2022-09-26T03:21:28.292Z,999.30
2022-09-26T03:22:03.545Z,999.30
2022-09-26T03:22:38.648Z,999.30
2022-09-26T03:23:14.099Z,999.32
2022-09-26T03:23:49.307Z,999.24
2022-09-26T03:24:24.611Z,999.25
2022-09-26T03:24:59.924Z,999.31
2022-09-26T03:25:35.055Z,999.29
2022-09-26T03:26:10.347Z,999.27
2022-09-26T03:26:45.377Z,999.25
2022-09-26T03:27:20.800Z,999.24
2022-09-26T03:27:55.941Z,999.21
2022-09-26T03:28:35.349Z,999.20
2022-09-26T03:29:06.698Z,999.17
2022-09-26T03:29:42.117Z,999.16
2022-09-26T03:30:17.435Z,999.17
2022-09-26T03:30:52.659Z,999.17
2022-09-26T03:31:27.776Z,999.12
2022-09-26T03:32:03.124Z,999.12
2022-09-26T03:32:38.471Z,999.13
2022-09-26T03:33:13.585Z,999.08
2022-09-26T03:33:48.828Z,999.04
2022-09-26T03:34:24.229Z,999.07
2022-09-26T03:34:59.369Z,999.03
2022-09-26T03:35:34.575Z,999.01
2022-09-26T03:36:09.868Z,999.02
2022-09-26T03:36:45.127Z,999.02
2022-09-26T03:37:20.238Z,998.98
2022-09-26T03:37:55.277Z,998.99
2022-09-26T03:38:30.682Z,998.97
2022-09-26T03:39:05.973Z,998.96
2022-09-26T03:39:41.222Z,998.91
2022-09-26T03:40:16.782Z,998.94
2022-09-26T03:40:52.319Z,998.98
2022-09-26T03:41:27.355Z,998.95
2022-09-26T03:42:02.788Z,998.88
2022-09-26T03:42:37.974Z,998.92
2022-09-26T03:43:13.299Z,998.90
2022-09-26T03:43:48.624Z,998.91
2022-09-26T03:44:23.729Z,998.90
2022-09-26T03:44:59.270Z,998.86
2022-09-26T03:45:34.556Z,998.84
2022-09-26T03:46:10.195Z,998.84
2022-09-26T03:46:45.450Z,998.81
2022-09-26T03:47:20.942Z,998.83
2022-09-26T03:47:56.258Z,998.82
2022-09-26T03:48:31.765Z,998.82
2022-09-26T03:49:07.128Z,998.77
2022-09-26T03:49:42.324Z,998.83
2022-09-26T03:50:17.543Z,998.83
2022-09-26T03:50:52.459Z,998.80
2022-09-26T03:51:27.981Z,998.84
2022-09-26T03:52:03.130Z,998.86
2022-09-26T03:52:38.450Z,998.75
2022-09-26T03:53:14.250Z,998.72
2022-09-26T03:53:49.466Z,998.74
2022-09-26T03:54:24.685Z,998.70
2022-09-26T03:55:00.021Z,998.74
2022-09-26T03:55:35.252Z,998.71
2022-09-26T03:56:10.877Z,998.70
2022-09-26T03:56:46.191Z,998.68
2022-09-26T03:57:21.522Z,998.65
2022-09-26T03:57:56.942Z,998.67
2022-09-26T03:58:32.370Z,998.70
2022-09-26T03:59:08.089Z,998.67
2022-09-26T03:59:42.980Z,998.66
2022-09-26T04:00:18.594Z,998.62
2022-09-26T04:00:53.965Z,998.64
2022-09-26T04:01:29.179Z,998.58
2022-09-26T04:02:04.727Z,998.55
2022-09-26T04:02:40.086Z,998.56
2022-09-26T04:03:15.304Z,998.56
2022-09-26T04:03:51.210Z,998.54
2022-09-26T04:04:25.831Z,998.58
2022-09-26T04:05:00.917Z,998.58
2022-09-26T04:05:36.026Z,998.54
2022-09-26T04:06:11.508Z,998.49
2022-09-26T04:06:47.024Z,998.48
2022-09-26T04:07:22.460Z,998.47
2022-09-26T04:07:57.553Z,998.46
2022-09-26T04:08:32.862Z,998.45
2022-09-26T04:09:08.951Z,998.46
2022-09-26T04:09:43.353Z,998.44
2022-09-26T04:10:18.572Z,998.43
2022-09-26T04:10:53.983Z,998.41
2022-09-26T04:11:29.379Z,998.45
2022-09-26T04:12:04.801Z,998.46
2022-09-26T04:12:40.035Z,998.44
2022-09-26T04:13:39.721Z,998.41
2022-09-26T04:13:52.345Z,998.39
2022-09-26T04:14:26.016Z,998.40
2022-09-26T04:15:01.317Z,998.38
2022-09-26T04:15:36.522Z,998.33
2022-09-26T04:16:11.770Z,998.38
2022-09-26T04:16:47.013Z,998.35
2022-09-26T04:17:22.353Z,998.39
2022-09-26T04:17:57.573Z,998.33
2022-09-26T04:18:33.076Z,998.35
2022-09-26T04:19:08.293Z,998.35
2022-09-26T04:19:43.673Z,998.38
2022-09-26T04:20:18.879Z,998.32
2022-09-26T04:20:53.881Z,998.29
2022-09-26T04:21:29.199Z,998.32
2022-09-26T04:22:04.403Z,998.29
2022-09-26T04:22:39.824Z,998.28
2022-09-26T04:23:15.214Z,998.28
2022-09-26T04:23:50.531Z,998.24
2022-09-26T04:24:25.736Z,998.29
2022-09-26T04:25:01.073Z,998.20
2022-09-26T04:25:36.378Z,998.23
2022-09-26T04:26:11.715Z,998.16
2022-09-26T04:26:46.690Z,998.16
2022-09-26T04:27:22.009Z,998.15
2022-09-26T04:27:57.211Z,998.19
2022-09-26T04:28:32.533Z,998.10
2022-09-26T04:29:07.836Z,998.09
2022-09-26T04:29:43.158Z,998.18
2022-09-26T04:30:18.376Z,998.21
2022-09-26T04:30:53.591Z,998.15
2022-09-26T04:31:28.876Z,998.11
2022-09-26T04:32:11.410Z,998.11
2022-09-26T04:32:48.404Z,998.09
2022-09-26T04:33:23.706Z,998.11
2022-09-26T04:33:58.926Z,998.13
2022-09-26T04:34:34.183Z,998.10
2022-09-26T04:35:09.517Z,998.11
2022-09-26T04:35:45.409Z,998.07
2022-09-26T04:36:20.740Z,998.07
2022-09-26T04:36:55.963Z,998.04
2022-09-26T04:37:31.281Z,998.01
2022-09-26T04:38:06.520Z,998.03
2022-09-26T04:38:41.836Z,998.01
2022-09-26T04:39:17.161Z,998.03
2022-09-26T04:39:52.405Z,997.97
2022-09-26T04:40:27.660Z,997.97
2022-09-26T04:41:03.208Z,997.92
2022-09-26T04:41:38.599Z,997.95
2022-09-26T04:42:14.163Z,997.98
2022-09-26T04:42:49.291Z,998.00
2022-09-26T04:43:24.832Z,997.99
2022-09-26T04:44:00.496Z,997.90
2022-09-26T04:44:35.668Z,997.94
2022-09-26T04:45:10.874Z,997.93
2022-09-26T04:45:46.218Z,997.90
2022-09-26T04:46:23.638Z,997.89
2022-09-26T04:46:56.649Z,997.89
2022-09-26T04:47:32.085Z,997.87
2022-09-26T04:48:07.757Z,997.83
2022-09-26T04:48:43.119Z,997.84
2022-09-26T04:49:18.369Z,997.85
2022-09-26T04:49:53.809Z,997.85
2022-09-26T04:50:28.935Z,997.81
2022-09-26T04:51:03.961Z,997.85
2022-09-26T04:51:39.056Z,997.80
2022-09-26T04:52:14.170Z,997.83
2022-09-26T04:52:49.328Z,997.84
2022-09-26T04:53:24.532Z,997.78
2022-09-26T04:53:59.909Z,997.75
2022-09-26T04:54:35.349Z,997.78
2022-09-26T04:55:10.587Z,997.80
2022-09-26T04:55:45.772Z,997.74
2022-09-26T04:56:21.162Z,997.76
2022-09-26T04:56:57.490Z,997.79
2022-09-26T04:57:32.689Z,997.80
2022-09-26T04:58:07.630Z,997.77
2022-09-26T04:58:42.878Z,997.73
2022-09-26T04:59:18.381Z,997.76
2022-09-26T04:59:53.617Z,997.75
2022-09-26T05:00:29.359Z,997.75
2022-09-26T05:01:04.876Z,997.74
2022-09-26T05:01:40.167Z,997.76
2022-09-26T05:02:15.544Z,997.74
2022-09-26T05:02:50.715Z,997.75
2022-09-26T05:03:25.952Z,997.72
2022-09-26T05:04:01.963Z,997.67
2022-09-26T05:04:37.006Z,997.73
2022-09-26T05:05:12.329Z,997.67
2022-09-26T05:05:47.585Z,997.72
2022-09-26T05:06:23.237Z,997.68
2022-09-26T05:06:58.810Z,997.67
2022-09-26T05:07:34.168Z,997.70
2022-09-26T05:08:10.195Z,997.67
2022-09-26T05:08:45.473Z,997.69
2022-09-26T05:09:20.901Z,997.68
2022-09-26T05:09:56.045Z,997.65
2022-09-26T05:10:31.190Z,997.63
2022-09-26T05:11:06.516Z,997.67
2022-09-26T05:11:42.451Z,997.61
2022-09-26T05:12:18.386Z,997.61
2022-09-26T05:12:53.741Z,997.62
2022-09-26T05:13:29.304Z,997.63
2022-09-26T05:14:04.961Z,997.59
2022-09-26T05:14:40.691Z,997.61
2022-09-26T05:15:16.021Z,997.62
2022-09-26T05:15:51.303Z,997.58
2022-09-26T05:16:26.604Z,997.55
2022-09-26T05:17:01.793Z,997.54
2022-09-26T05:17:37.487Z,997.51
2022-09-26T05:18:13.033Z,997.57
2022-09-26T05:18:49.448Z,997.57
2022-09-26T05:19:25.577Z,997.51
2022-09-26T05:20:00.812Z,997.50
2022-09-26T05:20:36.893Z,997.52
2022-09-26T05:21:12.330Z,997.47
2022-09-26T05:21:47.557Z,997.44
2022-09-26T05:22:24.555Z,997.41
2022-09-26T05:23:00.379Z,997.47
2022-09-26T05:23:37.016Z,997.43
2022-09-26T05:24:10.966Z,997.38
2022-09-26T05:24:46.259Z,997.42
2022-09-26T05:25:22.581Z,997.45
2022-09-26T05:25:57.837Z,997.42
2022-09-26T05:26:32.979Z,997.39
2022-09-26T05:27:08.683Z,997.34
2022-09-26T05:27:44.018Z,997.34
2022-09-26T05:28:19.375Z,997.34
2022-09-26T05:28:54.594Z,997.40
2022-09-26T05:29:29.865Z,997.34
2022-09-26T05:30:05.305Z,997.35
2022-09-26T05:30:41.485Z,997.31
2022-09-26T05:31:16.835Z,997.37
2022-09-26T05:31:52.027Z,997.38
2022-09-26T05:32:27.801Z,997.38
2022-09-26T05:33:03.044Z,997.37
2022-09-26T05:33:38.206Z,997.33
2022-09-26T05:34:18.447Z,997.34
2022-09-26T05:34:48.684Z,997.33
2022-09-26T05:35:23.783Z,997.35
2022-09-26T05:35:59.166Z,997.39
2022-09-26T05:36:34.731Z,997.31
2022-09-26T05:37:10.074Z,997.33
2022-09-26T05:37:45.345Z,997.30
2022-09-26T05:38:20.686Z,997.30
2022-09-26T05:38:55.934Z,997.31
2022-09-26T05:39:32.250Z,997.29
2022-09-26T05:40:07.566Z,997.28
2022-09-26T05:40:43.232Z,997.29
2022-09-26T05:41:19.578Z,997.28
2022-09-26T05:41:54.959Z,997.24
2022-09-26T05:42:29.985Z,997.23
2022-09-26T05:43:05.338Z,997.24
2022-09-26T05:43:41.510Z,997.27
2022-09-26T05:44:16.738Z,997.21
2022-09-26T05:44:52.021Z,997.19
2022-09-26T05:45:27.198Z,997.27
2022-09-26T05:46:02.418Z,997.18
2022-09-26T05:46:37.940Z,997.20
2022-09-26T05:47:13.339Z,997.18
2022-09-26T05:47:48.880Z,997.19
2022-09-26T05:48:24.122Z,997.20
2022-09-26T05:48:59.521Z,997.17
2022-09-26T05:49:34.869Z,997.18
2022-09-26T05:50:10.411Z,997.19
2022-09-26T05:50:45.464Z,997.22
2022-09-26T05:51:20.687Z,997.18
2022-09-26T05:51:56.069Z,997.18
2022-09-26T05:52:31.429Z,997.21
2022-09-26T05:53:06.817Z,997.17
2022-09-26T05:53:42.361Z,997.19
2022-09-26T05:54:17.492Z,997.17
2022-09-26T05:54:52.729Z,997.18
2022-09-26T05:55:28.274Z,997.21
2022-09-26T05:56:03.877Z,997.25
2022-09-26T05:56:39.077Z,997.22
2022-09-26T05:57:14.957Z,997.17
2022-09-26T05:57:50.097Z,997.18
2022-09-26T05:58:25.363Z,997.15
2022-09-26T05:59:00.607Z,997.12
2022-09-26T05:59:36.051Z,997.16
2022-09-26T06:00:11.286Z,997.21
2022-09-26T06:00:46.791Z,997.11
2022-09-26T06:01:22.127Z,997.12
2022-09-26T06:01:57.670Z,997.11
2022-09-26T06:02:32.908Z,997.12
2022-09-26T06:03:08.210Z,997.09
2022-09-26T06:03:43.559Z,997.13
2022-09-26T06:04:19.092Z,997.09
2022-09-26T06:04:54.096Z,997.07
2022-09-26T06:05:29.597Z,997.12
2022-09-26T06:06:04.918Z,997.07
2022-09-26T06:06:40.221Z,997.11
2022-09-26T06:07:15.638Z,997.12
2022-09-26T06:07:51.145Z,997.10
2022-09-26T06:08:26.479Z,997.09
2022-09-26T06:09:01.834Z,997.07
2022-09-26T06:09:37.105Z,997.08
2022-09-26T06:10:12.201Z,997.05
2022-09-26T06:10:47.830Z,997.07
2022-09-26T06:11:23.161Z,997.02
2022-09-26T06:11:58.491Z,997.05
2022-09-26T06:12:33.859Z,997.07
2022-09-26T06:13:09.887Z,997.02
2022-09-26T06:13:45.300Z,997.01
2022-09-26T06:14:20.918Z,997.00
2022-09-26T06:14:56.286Z,997.00
2022-09-26T06:15:31.690Z,997.00
2022-09-26T06:16:06.690Z,996.98
2022-09-26T06:16:41.768Z,996.95
2022-09-26T06:17:16.958Z,996.96
2022-09-26T06:17:52.228Z,996.98
2022-09-26T06:18:27.479Z,996.94
2022-09-26T06:19:02.872Z,996.98
2022-09-26T06:19:38.244Z,996.93
2022-09-26T06:20:13.377Z,996.88
2022-09-26T06:20:48.624Z,996.91
2022-09-26T06:21:23.896Z,996.91
2022-09-26T06:21:59.142Z,996.86
2022-09-26T06:22:34.448Z,996.86
2022-09-26T06:23:09.693Z,996.90
2022-09-26T06:23:45.144Z,996.88
2022-09-26T06:24:20.176Z,996.88
2022-09-26T06:24:55.508Z,996.81
2022-09-26T06:25:30.790Z,996.83
2022-09-26T06:26:06.333Z,996.81
2022-09-26T06:26:41.456Z,996.81
2022-09-26T06:27:16.981Z,996.82
2022-09-26T06:27:55.165Z,996.78
2022-09-26T06:28:27.722Z,996.82
2022-09-26T06:29:03.145Z,996.81
2022-09-26T06:29:38.547Z,996.78
2022-09-26T06:30:13.667Z,996.75
2022-09-26T06:30:48.993Z,996.71
2022-09-26T06:31:24.192Z,996.76
2022-09-26T06:31:59.751Z,996.71
2022-09-26T06:32:35.217Z,996.72
2022-09-26T06:33:10.572Z,996.73
2022-09-26T06:33:45.701Z,996.69
2022-09-26T06:34:20.951Z,996.75
2022-09-26T06:34:56.371Z,996.70
2022-09-26T06:35:31.402Z,996.67
2022-09-26T06:36:06.544Z,996.64
2022-09-26T06:36:41.960Z,996.65
2022-09-26T06:37:17.619Z,996.65
2022-09-26T06:37:52.844Z,996.62
2022-09-26T06:38:28.018Z,996.64
2022-09-26T06:39:03.209Z,996.68
2022-09-26T06:39:38.660Z,996.58
2022-09-26T06:40:14.144Z,996.53
2022-09-26T06:40:49.521Z,996.59
2022-09-26T06:41:24.830Z,996.57
2022-09-26T06:42:00.160Z,996.64
2022-09-26T06:42:35.067Z,996.58
2022-09-26T06:43:10.413Z,996.54
2022-09-26T06:43:46.101Z,996.59
2022-09-26T06:44:21.685Z,996.56
2022-09-26T06:44:57.215Z,996.52
2022-09-26T06:45:32.790Z,996.50
2022-09-26T06:46:07.978Z,996.53
2022-09-26T06:46:43.145Z,996.52
2022-09-26T06:47:18.762Z,996.51
2022-09-26T06:47:54.029Z,996.50
2022-09-26T06:48:29.351Z,996.49
2022-09-26T06:49:04.623Z,996.50
2022-09-26T06:49:40.246Z,996.49
2022-09-26T06:50:15.407Z,996.44
2022-09-26T06:50:50.549Z,996.47
2022-09-26T06:51:25.631Z,996.50
2022-09-26T06:52:00.800Z,996.48
2022-09-26T06:52:36.027Z,996.47
2022-09-26T06:53:11.375Z,996.46
2022-09-26T06:53:46.656Z,996.48
2022-09-26T06:54:21.982Z,996.41
2022-09-26T06:54:57.095Z,996.40
2022-09-26T06:55:32.512Z,996.39
2022-09-26T06:56:07.529Z,996.34
2022-09-26T06:56:42.923Z,996.34
2022-09-26T06:57:18.229Z,996.33
2022-09-26T06:57:53.645Z,996.32
2022-09-26T06:58:28.992Z,996.35
2022-09-26T06:59:04.442Z,996.31
2022-09-26T06:59:39.691Z,996.29
2022-09-26T07:00:15.168Z,996.27
2022-09-26T07:00:50.500Z,996.31
2022-09-26T07:01:25.825Z,996.30
2022-09-26T07:02:01.753Z,996.27
2022-09-26T07:02:36.863Z,996.24
2022-09-26T07:03:12.294Z,996.25
2022-09-26T07:03:47.440Z,996.25
2022-09-26T07:04:22.808Z,996.24
2022-09-26T07:04:58.233Z,996.22
2022-09-26T07:05:33.682Z,996.17
2022-09-26T07:06:09.001Z,996.18
2022-09-26T07:06:44.615Z,996.17
2022-09-26T07:07:20.032Z,996.21
2022-09-26T07:07:55.421Z,996.15
2022-09-26T07:09:00.485Z,996.15
2022-09-26T07:09:14.660Z,996.17
2022-09-26T07:09:42.175Z,996.16
2022-09-26T07:10:17.531Z,996.16
2022-09-26T07:10:52.667Z,996.17
2022-09-26T07:11:38.266Z,996.16
2022-09-26T07:12:14.584Z,996.11
2022-09-26T07:12:38.375Z,996.14
2022-09-26T07:13:13.618Z,996.10
2022-09-26T07:13:48.975Z,996.09
2022-09-26T07:14:24.335Z,996.10
2022-09-26T07:14:59.515Z,996.14
2022-09-26T07:15:34.657Z,996.10